Time;durP1;ratioP1;P1;durP2;ratioP2;P2;SDS_P1;SDS_P2;PMS_P1;PMS_P2;Temp;Humidity;BMP_temperature;BMP_pressure;BME280_temperature;BME280_humidity;BME280_pressure;Samples;Min_cycle;Max_cycle;Signal;HPM_P1;HPM_P2
2022/08/08 00:02:05;;;;;;;12.40;6.40;;;13.70;99.90;;;;;;5017698;28;20049;-88
2022/08/08 00:05:09;;;;;;;11.48;5.75;;;13.80;99.90;;;;;;5020110;28;20073;-88
2022/08/08 00:07:45;;;;;;;11.95;6.13;;;13.70;99.90;;;;;;5034239;28;20056;-89
2022/08/08 00:10:24;;;;;;;12.23;6.20;;;13.60;99.90;;;;;;5032833;28;20115;-89
2022/08/08 00:13:00;;;;;;;11.73;6.00;;;13.60;99.90;;;;;;5016021;28;20074;-89
2022/08/08 00:15:40;;;;;;;11.32;5.78;;;13.60;99.90;;;;;;5026130;28;20053;-89
2022/08/08 00:18:23;;;;;;;13.05;6.43;;;13.60;99.90;;;;;;5058824;28;20034;-89
2022/08/08 00:20:50;;;;;;;12.50;6.82;;;13.50;99.90;;;;;;5024868;28;20050;-89
2022/08/08 00:23:33;;;;;;;11.95;5.75;;;13.50;99.90;;;;;;5037958;28;20359;-89
2022/08/08 00:26:03;;;;;;;13.32;5.97;;;13.40;99.90;;;;;;5015777;28;20049;-89
2022/08/08 00:28:36;;;;;;;10.73;5.65;;;14.00;99.90;;;;;;5016382;28;20098;-89
2022/08/08 00:31:07;;;;;;;11.45;5.70;;;13.40;99.90;;;;;;5032318;28;20081;-89
2022/08/08 00:33:42;;;;;;;12.30;6.20;;;13.30;99.90;;;;;;5033540;28;20068;-89
2022/08/08 00:36:22;;;;;;;12.40;5.93;;;13.30;99.90;;;;;;5033356;28;20060;-89
2022/08/08 00:38:57;;;;;;;13.23;6.10;;;13.30;99.90;;;;;;5036511;28;20037;-88
2022/08/08 00:42:11;;;;;;;14.52;6.32;;;13.30;99.90;;;;;;5016736;28;20085;-89
2022/08/08 00:45:10;;;;;;;11.52;5.50;;;13.30;99.90;;;;;;5015591;28;20060;-88
2022/08/08 00:48:23;;;;;;;14.10;6.03;;;13.20;99.90;;;;;;5050025;28;20127;-89
2022/08/08 00:51:25;;;;;;;12.25;6.00;;;13.20;99.90;;;;;;5014604;28;20045;-89
2022/08/08 00:54:06;;;;;;;13.23;6.35;;;13.10;99.90;;;;;;5015524;28;20081;-88
2022/08/08 00:56:42;;;;;;;11.48;5.90;;;13.10;99.90;;;;;;5015013;28;20037;-89
2022/08/08 00:59:52;;;;;;;12.02;6.05;;;13.10;99.90;;;;;;5014335;28;20087;-88
2022/08/08 01:02:52;;;;;;;11.23;5.80;;;13.00;99.90;;;;;;4962078;28;20492;-88
2022/08/08 01:05:54;;;;;;;11.35;6.05;;;13.00;99.90;;;;;;5032247;28;20075;-89
2022/08/08 01:08:53;;;;;;;12.23;5.75;;;12.90;99.90;;;;;;5015070;28;20053;-89
2022/08/08 01:12:10;;;;;;;10.80;5.68;;;13.00;99.90;;;;;;5032843;28;20128;-88
2022/08/08 01:14:56;;;;;;;11.13;5.70;;;12.90;99.90;;;;;;5015605;28;20103;-88
2022/08/08 01:18:04;;;;;;;12.35;5.93;;;12.90;99.90;;;;;;5032479;28;20504;-88
2022/08/08 01:20:50;;;;;;;10.45;5.80;;;12.80;99.90;;;;;;5014445;28;20053;-89
2022/08/08 01:23:27;;;;;;;12.25;5.93;;;12.80;99.90;;;;;;5015145;28;20090;-88
2022/08/08 01:26:15;;;;;;;11.63;6.10;;;13.40;99.90;;;;;;5038271;28;20784;-88
2022/08/08 01:28:59;;;;;;;11.57;5.90;;;12.70;99.90;;;;;;5015336;28;20524;-89
2022/08/08 01:31:55;;;;;;;12.00;5.90;;;12.70;99.90;;;;;;5014772;28;20057;-88
2022/08/08 01:34:35;;;;;;;11.15;6.25;;;12.70;99.90;;;;;;5032092;28;20045;-87
2022/08/08 01:37:20;;;;;;;12.68;6.40;;;12.70;99.90;;;;;;5014877;28;20489;-89
2022/08/08 01:40:04;;;;;;;13.38;6.30;;;12.70;99.90;;;;;;5031924;28;20084;-89
2022/08/08 01:42:45;;;;;;;14.23;6.82;;;12.70;99.90;;;;;;5014944;28;20497;-88
2022/08/08 01:45:33;;;;;;;12.73;6.40;;;12.70;99.90;;;;;;5014902;28;20103;-88
2022/08/08 01:48:01;;;;;;;12.02;5.97;;;12.70;99.90;;;;;;5031624;28;20045;-88
2022/08/08 01:50:55;;;;;;;11.55;5.72;;;12.70;99.90;;;;;;5014606;28;20509;-88
2022/08/08 01:53:42;;;;;;;10.88;6.00;;;12.70;99.90;;;;;;5032789;28;20046;-88
2022/08/08 01:56:22;;;;;;;11.70;5.78;;;12.60;99.90;;;;;;5035937;28;20077;-89
2022/08/08 01:59:09;;;;;;;12.52;5.70;;;12.60;99.90;;;;;;5018252;28;20050;-89
2022/08/08 02:01:52;;;;;;;12.43;6.13;;;12.60;99.90;;;;;;5013667;28;20116;-88
2022/08/08 02:04:33;;;;;;;12.32;6.20;;;12.50;99.90;;;;;;5015795;28;20052;-88
2022/08/08 02:07:07;;;;;;;14.43;6.25;;;12.50;99.90;;;;;;4997883;28;20506;-88
2022/08/08 02:09:41;;;;;;;12.00;6.00;;;12.50;99.90;;;;;;4997830;28;20124;-89
2022/08/08 02:12:22;;;;;;;12.15;6.60;;;12.40;99.90;;;;;;4998435;28;20064;-88
2022/08/08 02:14:56;;;;;;;13.75;7.00;;;12.50;99.90;;;;;;4997841;28;20073;-88
2022/08/08 02:17:32;;;;;;;14.73;7.10;;;12.50;99.90;;;;;;5016116;28;20056;-88
2022/08/08 02:20:20;;;;;;;12.25;6.30;;;12.50;99.90;;;;;;5017324;28;20045;-88
2022/08/08 02:22:55;;;;;;;11.80;6.35;;;12.50;99.90;;;;;;5032778;28;20113;-88
2022/08/08 02:25:44;;;;;;;11.30;6.22;;;12.50;99.90;;;;;;4999044;28;20064;-88
2022/08/08 02:28:23;;;;;;;12.02;6.32;;;12.50;99.90;;;;;;4971550;28;20046;-88
2022/08/08 02:31:15;;;;;;;13.10;6.40;;;12.50;99.90;;;;;;5014774;28;20073;-88
2022/08/08 02:34:07;;;;;;;15.43;6.45;;;12.40;99.90;;;;;;5000709;28;20405;-88
2022/08/08 02:36:36;;;;;;;11.52;6.00;;;12.40;99.90;;;;;;4998711;28;20033;-89
2022/08/08 02:39:18;;;;;;;11.75;5.90;;;12.40;99.90;;;;;;4998149;28;20108;-89
2022/08/08 02:41:53;;;;;;;11.90;6.22;;;12.40;99.90;;;;;;5015558;28;20038;-89
2022/08/08 02:44:36;;;;;;;12.23;6.05;;;12.40;99.90;;;;;;5003840;28;20046;-89
2022/08/08 02:47:52;;;;;;;11.15;6.32;;;12.40;99.90;;;;;;5021549;28;20050;-89
2022/08/08 02:50:41;;;;;;;12.15;6.13;;;12.40;99.90;;;;;;5014655;28;20824;-89
2022/08/08 02:53:10;;;;;;;12.25;5.75;;;12.40;99.90;;;;;;5015450;28;20046;-89
2022/08/08 02:56:02;;;;;;;11.88;5.90;;;12.30;99.90;;;;;;5015356;28;20046;-89
2022/08/08 02:59:12;;;;;;;12.13;6.20;;;12.30;99.90;;;;;;4997060;28;20042;-89
2022/08/08 03:02:15;;;;;;;12.80;6.18;;;12.30;99.90;;;;;;4997664;28;20103;-89
2022/08/08 03:04:55;;;;;;;13.05;6.28;;;12.20;99.90;;;;;;4996800;28;20497;-89
2022/08/08 03:07:38;;;;;;;11.73;5.85;;;12.20;99.90;;;;;;4997662;28;20060;-89
2022/08/08 03:10:15;;;;;;;12.30;6.20;;;12.20;99.90;;;;;;4997201;28;20093;-88
2022/08/08 03:13:03;;;;;;;14.52;6.43;;;12.20;99.90;;;;;;4997556;28;20485;-89
2022/08/08 03:15:52;;;;;;;10.70;5.60;;;12.20;99.90;;;;;;4997721;28;20449;-88
2022/08/08 03:18:53;;;;;;;11.40;5.60;;;12.10;99.90;;;;;;5014504;28;20046;-88
2022/08/08 03:21:18;;;;;;;13.20;6.10;;;12.10;99.90;;;;;;4993255;28;20064;-88
2022/08/08 03:23:44;;;;;;;12.90;5.40;;;12.10;99.90;;;;;;4997299;28;20140;-89
2022/08/08 03:26:21;;;;;;;12.77;4.93;;;12.00;99.90;;;;;;5014367;28;20561;-89
2022/08/08 03:28:52;;;;;;;11.35;5.60;;;12.00;99.90;;;;;;5014606;28;20049;-88
2022/08/08 03:34:12;;;;;;;11.38;5.35;;;12.00;99.90;;;;;;4996962;28;20050;-89
2022/08/08 03:36:41;;;;;;;10.98;5.30;;;12.00;99.90;;;;;;5014505;28;20439;-89
2022/08/08 03:39:10;;;;;;;11.43;5.50;;;11.90;99.90;;;;;;4996904;28;20153;-89
2022/08/08 03:41:36;;;;;;;11.13;5.18;;;11.90;99.90;;;;;;4996839;28;20077;-88
2022/08/08 03:44:02;;;;;;;11.25;5.13;;;12.00;99.90;;;;;;4996521;28;20536;-89
2022/08/08 03:46:27;;;;;;;12.30;5.40;;;11.90;99.90;;;;;;4996128;28;20402;-89
2022/08/08 03:48:57;;;;;;;11.38;4.90;;;12.20;99.90;;;;;;4996612;28;20038;-88
2022/08/08 03:51:24;;;;;;;11.18;5.32;;;11.90;99.90;;;;;;5014373;28;20393;-89
2022/08/08 03:53:51;;;;;;;10.13;5.20;;;12.00;99.90;;;;;;5013367;28;20038;-89
2022/08/08 03:56:18;;;;;;;11.65;5.18;;;11.90;99.90;;;;;;5006984;28;20110;-88
2022/08/08 03:58:51;;;;;;;10.15;4.97;;;12.00;99.90;;;;;;5009179;28;20130;-89
2022/08/08 04:01:18;;;;;;;11.27;5.00;;;12.50;99.90;;;;;;5020262;28;20248;-88
2022/08/08 04:03:46;;;;;;;10.10;4.60;;;11.90;99.90;;;;;;5008510;28;20413;-89
2022/08/08 04:06:13;;;;;;;10.90;4.50;;;11.80;99.90;;;;;;5033339;28;20045;-89
2022/08/08 04:08:39;;;;;;;10.93;4.68;;;12.30;99.90;;;;;;5035833;28;20041;-88
2022/08/08 04:11:06;;;;;;;11.43;5.32;;;12.20;99.90;;;;;;5018066;28;20045;-88
2022/08/08 04:13:32;;;;;;;11.35;4.57;;;11.80;99.90;;;;;;5040333;28;20073;-88
2022/08/08 04:15:58;;;;;;;10.00;4.40;;;11.80;99.90;;;;;;5049852;28;20084;-89
2022/08/08 04:18:24;;;;;;;10.93;5.03;;;11.80;99.90;;;;;;5019830;28;20042;-89
2022/08/08 04:20:50;;;;;;;12.13;4.78;;;11.80;99.90;;;;;;5034694;28;20056;-88
2022/08/08 04:23:16;;;;;;;11.15;5.10;;;11.80;99.90;;;;;;5033044;28;20037;-89
2022/08/08 04:25:42;;;;;;;12.30;5.00;;;11.80;99.90;;;;;;5034379;28;20094;-89
2022/08/08 04:28:08;;;;;;;12.68;4.40;;;11.80;99.90;;;;;;5034470;28;20397;-89
2022/08/08 04:30:34;;;;;;;9.73;4.60;;;11.90;99.90;;;;;;5020322;28;20058;-88
2022/08/08 04:33:00;;;;;;;12.23;4.57;;;12.60;99.90;;;;;;5016749;28;20046;-88
2022/08/08 04:35:26;;;;;;;11.07;4.53;;;11.90;99.90;;;;;;5016023;28;20049;-88
2022/08/08 04:37:53;;;;;;;11.95;4.88;;;11.90;99.90;;;;;;5033273;28;20048;-89
2022/08/08 04:40:21;;;;;;;11.15;4.50;;;12.00;99.90;;;;;;5021302;28;20062;-88
2022/08/08 04:42:47;;;;;;;11.80;4.78;;;12.00;99.90;;;;;;5032801;28;20111;-88
2022/08/08 04:45:14;;;;;;;10.32;4.70;;;12.00;99.90;;;;;;5016626;28;20042;-89
2022/08/08 04:47:39;;;;;;;10.45;4.65;;;12.10;99.90;;;;;;5016973;28;20045;-88
2022/08/08 04:50:06;;;;;;;12.60;4.93;;;12.20;99.90;;;;;;5016821;28;20068;-88
2022/08/08 04:52:35;;;;;;;11.38;4.93;;;12.20;99.90;;;;;;5034229;28;20052;-88
2022/08/08 04:55:01;;;;;;;10.77;4.65;;;12.20;99.90;;;;;;5035288;28;20049;-88
2022/08/08 04:57:27;;;;;;;11.30;4.70;;;12.80;99.90;;;;;;5017468;28;20049;-88
2022/08/08 04:59:52;;;;;;;10.23;4.60;;;12.40;99.90;;;;;;5034436;28;20042;-88
2022/08/08 05:02:18;;;;;;;10.32;4.28;;;12.40;99.90;;;;;;5036029;28;20037;-88
2022/08/08 05:04:44;;;;;;;10.20;4.28;;;12.40;99.90;;;;;;5017041;28;20049;-88
2022/08/08 05:07:09;;;;;;;10.60;4.53;;;12.50;99.90;;;;;;5015749;28;20095;-88
2022/08/08 05:09:35;;;;;;;11.07;4.35;;;12.60;99.90;;;;;;5033082;28;20081;-88
2022/08/08 05:12:02;;;;;;;9.65;3.85;;;12.70;99.90;;;;;;5013838;28;20049;-88
2022/08/08 05:14:28;;;;;;;10.15;4.18;;;12.70;99.90;;;;;;5015138;28;20053;-87
2022/08/08 05:16:54;;;;;;;9.90;3.70;;;12.80;99.90;;;;;;5014371;28;20128;-82
2022/08/08 05:19:20;;;;;;;9.20;3.85;;;12.90;99.90;;;;;;5013984;28;20143;-82
2022/08/08 05:21:46;;;;;;;10.68;4.00;;;13.30;99.90;;;;;;5032444;28;20045;-80
2022/08/08 05:24:11;;;;;;;10.68;3.90;;;13.10;99.90;;;;;;5032842;28;20053;-81
2022/08/08 05:26:40;;;;;;;10.68;3.55;;;13.20;99.90;;;;;;5013674;28;20051;-81
2022/08/08 05:29:09;;;;;;;9.68;3.50;;;13.40;99.90;;;;;;5033963;28;20465;-84
2022/08/08 05:31:35;;;;;;;11.05;3.78;;;14.20;99.90;;;;;;5019063;28;20057;-80
2022/08/08 05:34:28;;;;;;;10.70;3.60;;;13.60;99.90;;;;;;5035469;28;20088;-81
2022/08/08 05:36:56;;;;;;;13.35;3.50;;;13.70;99.90;;;;;;5036268;28;20140;-81
2022/08/08 05:39:24;;;;;;;9.50;3.60;;;13.90;99.90;;;;;;5017946;28;20096;-81
2022/08/08 05:41:51;;;;;;;10.80;3.60;;;14.10;99.90;;;;;;5036062;28;20045;-80
2022/08/08 05:44:27;;;;;;;11.75;3.40;;;14.10;99.90;;;;;;5018343;28;20056;-80
2022/08/08 05:46:54;;;;;;;10.75;3.33;;;14.30;99.90;;;;;;5035221;28;20041;-80
2022/08/08 05:49:21;;;;;;;8.27;3.10;;;14.40;99.90;;;;;;5035844;28;20128;-82
2022/08/08 05:51:48;;;;;;;10.38;3.20;;;14.50;99.90;;;;;;5035811;28;20042;-81
2022/08/08 05:54:14;;;;;;;9.52;3.40;;;14.60;99.90;;;;;;5017490;28;20543;-82
2022/08/08 05:56:42;;;;;;;9.32;3.42;;;14.70;99.90;;;;;;5018476;28;20053;-82
2022/08/08 05:59:17;;;;;;;12.32;4.28;;;14.80;99.90;;;;;;5018363;28;20469;-80
2022/08/08 06:01:44;;;;;;;9.27;3.50;;;14.90;99.90;;;;;;5017421;28;20089;-81
2022/08/08 06:04:11;;;;;;;11.80;3.15;;;15.00;99.90;;;;;;5036105;28;20136;-81
2022/08/08 06:06:43;;;;;;;11.02;3.40;;;15.10;99.90;;;;;;5018167;28;20375;-83
2022/08/08 06:09:09;;;;;;;9.00;2.92;;;15.40;99.90;;;;;;5035373;28;20052;-82
2022/08/08 06:11:35;;;;;;;13.32;3.13;;;15.30;99.90;;;;;;5035255;28;20132;-82
2022/08/08 06:14:04;;;;;;;10.73;3.13;;;15.50;99.90;;;;;;5017004;28;20052;-82
2022/08/08 06:16:40;;;;;;;7.38;2.83;;;15.50;99.90;;;;;;5018033;28;20543;-82
2022/08/08 06:19:08;;;;;;;9.75;3.00;;;15.60;99.90;;;;;;5017938;28;20473;-82
2022/08/08 06:21:36;;;;;;;9.80;3.20;;;15.60;99.90;;;;;;5017222;28;20432;-82
2022/08/08 06:24:05;;;;;;;9.73;3.33;;;15.80;99.90;;;;;;5017489;28;20045;-82
2022/08/08 06:26:38;;;;;;;8.95;3.20;;;15.80;99.90;;;;;;5018116;28;20068;-81
2022/08/08 06:29:08;;;;;;;9.07;3.10;;;15.90;99.90;;;;;;5017082;28;20053;-83
2022/08/08 06:31:35;;;;;;;10.82;3.10;;;16.30;99.90;;;;;;5017385;28;20072;-83
2022/08/08 06:34:11;;;;;;;8.73;2.88;;;16.10;99.90;;;;;;5035253;28;20133;-83
2022/08/08 06:36:40;;;;;;;10.02;3.13;;;16.10;99.90;;;;;;5016935;28;20060;-82
2022/08/08 06:39:10;;;;;;;9.65;3.35;;;16.20;99.90;;;;;;5017441;28;20087;-83
2022/08/08 06:41:57;;;;;;;8.07;2.95;;;16.70;99.90;;;;;;5016838;28;20080;-83
2022/08/08 06:44:24;;;;;;;9.40;3.00;;;16.60;99.90;;;;;;5009480;28;20038;-82
2022/08/08 06:46:51;;;;;;;7.90;3.05;;;16.50;99.90;;;;;;5024218;28;20080;-82
2022/08/08 06:49:18;;;;;;;8.27;3.10;;;16.50;99.90;;;;;;5000959;28;20371;-82
2022/08/08 06:52:00;;;;;;;11.68;2.80;;;16.60;99.90;;;;;;5013565;28;20050;-83
2022/08/08 06:54:27;;;;;;;8.43;3.00;;;17.10;99.90;;;;;;5015370;28;20045;-83
2022/08/08 06:56:53;;;;;;;14.32;3.28;;;16.80;99.90;;;;;;4996730;28;20077;-82
2022/08/08 06:59:18;;;;;;;7.82;3.00;;;16.90;99.90;;;;;;5015046;28;20076;-83
2022/08/08 07:02:27;;;;;;;11.10;3.08;;;17.10;99.90;;;;;;5014492;28;20046;-83
2022/08/08 07:04:59;;;;;;;11.38;3.40;;;17.10;99.90;;;;;;4993861;28;20049;-84
2022/08/08 07:07:49;;;;;;;10.40;3.05;;;17.70;99.90;;;;;;5027450;28;20072;-83
2022/08/08 07:10:19;;;;;;;9.55;3.08;;;17.40;99.90;;;;;;5009591;28;20128;-83
2022/08/08 07:13:01;;;;;;;9.68;2.90;;;17.60;99.90;;;;;;5027599;28;20077;-82
2022/08/08 07:15:56;;;;;;;10.18;2.95;;;17.70;99.90;;;;;;5051385;28;20056;-82
2022/08/08 07:18:35;;;;;;;10.70;2.88;;;18.10;99.90;;;;;;4948016;28;20059;-81
2022/08/08 07:21:06;;;;;;;10.57;2.80;;;17.90;99.90;;;;;;5034413;28;20049;-81
2022/08/08 07:23:47;;;;;;;10.77;2.80;;;18.10;99.90;;;;;;5016801;28;20091;-81
2022/08/08 07:26:15;;;;;;;9.00;3.00;;;18.20;99.90;;;;;;5015956;28;20128;-81
2022/08/08 07:28:42;;;;;;;9.73;2.80;;;18.30;99.90;;;;;;5016725;28;20374;-81
2022/08/08 07:31:08;;;;;;;9.95;3.13;;;18.30;99.90;;;;;;5034016;28;20527;-81
2022/08/08 07:33:35;;;;;;;9.93;2.33;;;18.30;99.90;;;;;;5012520;28;20045;-83
2022/08/08 07:36:01;;;;;;;8.40;2.58;;;18.40;99.90;;;;;;5023568;28;20045;-82
2022/08/08 07:38:27;;;;;;;7.82;2.63;;;18.60;99.90;;;;;;5011675;28;20141;-82
2022/08/08 07:40:57;;;;;;;9.48;2.60;;;18.40;99.90;;;;;;5015655;28;20049;-81
2022/08/08 07:43:23;;;;;;;9.65;3.00;;;18.40;99.90;;;;;;5034290;28;20061;-82
2022/08/08 07:45:49;;;;;;;9.95;2.97;;;19.20;99.90;;;;;;5015167;28;20128;-82
2022/08/08 07:48:14;;;;;;;8.75;2.53;;;18.60;99.90;;;;;;5016551;28;20428;-84
2022/08/08 07:50:41;;;;;;;8.77;2.60;;;18.90;99.90;;;;;;5015948;28;20053;-84
2022/08/08 07:53:35;;;;;;;9.25;2.60;;;19.00;99.90;;;;;;5015056;28;20084;-85
2022/08/08 07:56:03;;;;;;;10.82;2.50;;;19.10;99.90;;;;;;5015817;28;20045;-85
2022/08/08 07:58:38;;;;;;;8.65;2.33;;;19.20;99.90;;;;;;5033937;28;20033;-85
2022/08/08 08:01:14;;;;;;;10.60;3.15;;;19.30;99.90;;;;;;5032965;28;20064;-85
2022/08/08 08:04:03;;;;;;;9.57;2.50;;;19.50;99.90;;;;;;5016513;28;20087;-85
2022/08/08 08:06:32;;;;;;;8.75;2.45;;;19.60;99.90;;;;;;5016473;28;20432;-86
2022/08/08 08:09:20;;;;;;;9.15;2.55;;;19.80;99.90;;;;;;5030705;28;20096;-83
2022/08/08 08:11:49;;;;;;;11.07;2.88;;;19.90;99.90;;;;;;5015299;28;20061;-82
2022/08/08 08:14:27;;;;;;;8.00;2.58;;;20.30;99.90;;;;;;5015303;28;20045;-83
2022/08/08 08:16:54;;;;;;;9.60;2.35;;;20.10;99.90;;;;;;5015750;28;20500;-83
2022/08/08 08:19:23;;;;;;;9.50;2.40;;;20.30;99.90;;;;;;5033484;28;20055;-83
2022/08/08 08:21:49;;;;;;;6.45;2.28;;;20.50;99.90;;;;;;5015105;28;20050;-83
2022/08/08 08:24:15;;;;;;;8.30;2.20;;;20.50;99.90;;;;;;5015617;28;20385;-83
2022/08/08 08:26:41;;;;;;;8.15;2.33;;;20.90;99.90;;;;;;5015698;28;20049;-83
2022/08/08 08:29:07;;;;;;;7.88;2.42;;;20.70;99.90;;;;;;5014888;28;20042;-83
2022/08/08 08:31:32;;;;;;;8.02;2.70;;;20.90;99.90;;;;;;5015175;28;20110;-83
2022/08/08 08:33:58;;;;;;;9.85;2.50;;;20.90;99.90;;;;;;5033008;28;20053;-83
2022/08/08 08:36:24;;;;;;;8.90;2.50;;;20.90;99.90;;;;;;5032349;28;20048;-83
2022/08/08 08:38:50;;;;;;;9.32;2.40;;;21.10;99.90;;;;;;5033582;28;20041;-83
2022/08/08 08:41:17;;;;;;;9.27;2.20;;;21.00;99.90;;;;;;5033200;28;20041;-83
2022/08/08 08:43:45;;;;;;;7.32;2.38;;;21.00;99.90;;;;;;5031791;28;20099;-83
2022/08/08 08:46:12;;;;;;;6.05;2.20;;;21.30;99.90;;;;;;5015385;28;20092;-83
2022/08/08 08:48:40;;;;;;;7.60;2.13;;;21.50;99.90;;;;;;5032956;28;20037;-83
2022/08/08 08:51:11;;;;;;;6.88;2.30;;;21.90;99.90;;;;;;5032584;28;20048;-83
2022/08/08 08:53:48;;;;;;;9.32;2.35;;;21.60;99.90;;;;;;5032974;28;20049;-83
2022/08/08 08:56:17;;;;;;;5.88;1.90;;;21.60;99.90;;;;;;5014345;28;20057;-84
2022/08/08 08:58:45;;;;;;;8.38;2.22;;;21.60;99.90;;;;;;5032618;28;20075;-83
2022/08/08 09:01:13;;;;;;;8.45;2.40;;;21.40;99.90;;;;;;5015048;28;20045;-83
2022/08/08 09:03:41;;;;;;;8.05;2.10;;;21.80;99.90;;;;;;5031452;28;20045;-83
2022/08/08 09:06:09;;;;;;;8.18;2.20;;;21.40;99.90;;;;;;5014658;28;20122;-83
2022/08/08 09:08:38;;;;;;;9.07;2.40;;;21.40;99.90;;;;;;5014925;28;20080;-84
2022/08/08 09:11:06;;;;;;;8.82;2.33;;;21.50;99.90;;;;;;5031673;28;20052;-83
2022/08/08 09:13:34;;;;;;;7.65;2.50;;;21.70;99.90;;;;;;5014838;28;20057;-83
2022/08/08 09:16:02;;;;;;;7.65;2.10;;;21.90;99.90;;;;;;5031964;28;20057;-83
2022/08/08 09:18:29;;;;;;;5.93;1.90;;;22.50;99.90;;;;;;5014004;28;20072;-82
2022/08/08 09:20:55;;;;;;;7.90;2.25;;;22.10;99.90;;;;;;5010907;28;20041;-82
2022/08/08 09:23:21;;;;;;;7.00;2.20;;;22.10;99.90;;;;;;5025311;28;20049;-83
2022/08/08 09:25:55;;;;;;;7.30;2.17;;;21.90;99.90;;;;;;5010859;28;20092;-82
2022/08/08 09:28:26;;;;;;;7.78;2.45;;;21.60;99.90;;;;;;5003222;28;20101;-83
2022/08/08 09:30:56;;;;;;;8.65;2.20;;;21.50;99.90;;;;;;5010432;28;20041;-83
2022/08/08 09:33:25;;;;;;;8.70;2.20;;;21.20;99.90;;;;;;5029631;28;20045;-82
2022/08/08 09:35:51;;;;;;;7.75;2.20;;;21.20;99.90;;;;;;5013751;28;20415;-83
2022/08/08 09:38:39;;;;;;;6.10;2.10;;;21.30;99.90;;;;;;5013378;28;20041;-83
2022/08/08 09:41:05;;;;;;;7.47;2.30;;;21.20;99.90;;;;;;5014115;28;20045;-84
2022/08/08 09:43:38;;;;;;;7.18;2.30;;;21.20;99.90;;;;;;5047232;28;20103;-83
2022/08/08 09:46:05;;;;;;;8.05;2.60;;;21.30;99.90;;;;;;5045949;28;20050;-83
2022/08/08 09:48:37;;;;;;;7.60;2.30;;;22.00;99.90;;;;;;5014263;28;20054;-84
2022/08/08 09:51:03;;;;;;;8.85;2.38;;;21.90;99.90;;;;;;5031611;28;20410;-81
2022/08/08 09:53:46;;;;;;;11.32;2.30;;;22.00;99.90;;;;;;5013322;28;20091;-83
2022/08/08 09:56:14;;;;;;;6.82;2.35;;;22.00;99.90;;;;;;5032007;28;20124;-83
2022/08/08 09:58:52;;;;;;;7.75;2.30;;;21.90;99.90;;;;;;5013109;28;20037;-83
2022/08/08 10:01:21;;;;;;;8.38;2.30;;;21.80;99.90;;;;;;5030853;28;20053;-84
2022/08/08 10:03:49;;;;;;;9.07;2.13;;;21.80;99.90;;;;;;5013432;28;20053;-84
2022/08/08 10:06:18;;;;;;;6.28;2.05;;;21.70;99.90;;;;;;5031482;28;20120;-84
2022/08/08 10:08:49;;;;;;;7.40;2.05;;;21.70;99.90;;;;;;5032304;28;20073;-84
2022/08/08 10:11:22;;;;;;;5.93;1.80;;;22.00;99.90;;;;;;5037802;28;20041;-83
2022/08/08 10:13:58;;;;;;;;;;;22.50;99.90;;;;;;5051824;28;20044;-84
2022/08/08 10:16:38;;;;;;;7.93;1.98;;;22.30;99.90;;;;;;5035616;28;19921;-84
2022/08/08 10:19:06;;;;;;;5.45;1.80;;;22.30;99.90;;;;;;5018011;28;20128;-84
2022/08/08 10:21:36;;;;;;;6.60;1.90;;;22.30;99.90;;;;;;5050485;28;20147;-84
2022/08/08 10:24:05;;;;;;;7.78;2.03;;;22.30;99.90;;;;;;5017657;28;20045;-85
2022/08/08 10:26:38;;;;;;;7.45;2.03;;;22.30;99.90;;;;;;5017737;28;20053;-84
2022/08/08 10:29:06;;;;;;;5.82;1.83;;;22.50;99.90;;;;;;5034947;28;20415;-84
2022/08/08 10:34:19;;;;;;;6.53;2.00;;;22.60;99.90;;;;;;5034897;28;20041;-84
2022/08/08 10:36:45;;;;;;;6.78;2.10;;;22.70;99.90;;;;;;5017420;28;20076;-85
2022/08/08 10:39:17;;;;;;;6.65;2.10;;;22.70;99.90;;;;;;5050611;28;20049;-84
2022/08/08 10:41:53;;;;;;;6.30;1.80;;;23.10;99.90;;;;;;5016441;28;20105;-84
2022/08/08 10:44:36;;;;;;;6.07;1.90;;;23.60;99.90;;;;;;5017501;28;20311;-84
2022/08/08 10:47:16;;;;;;;6.80;1.80;;;24.20;99.90;;;;;;5017440;28;20041;-86
2022/08/08 10:49:49;;;;;;;7.55;1.70;;;24.70;99.90;;;;;;5016731;28;20080;-83
2022/08/08 10:52:35;;;;;;;6.15;1.70;;;24.60;99.90;;;;;;5017215;28;20080;-84
2022/08/08 10:55:05;;;;;;;5.50;1.80;;;24.30;99.50;;;;;;5017081;28;20107;-83
2022/08/08 10:57:36;;;;;;;7.40;1.88;;;23.90;99.90;;;;;;5016376;28;20060;-82
2022/08/08 11:00:04;;;;;;;5.65;1.67;;;24.00;99.90;;;;;;5050265;28;20358;-81
2022/08/08 11:02:31;;;;;;;6.40;1.70;;;24.10;99.90;;;;;;5016662;28;20394;-82
2022/08/08 11:05:00;;;;;;;5.57;1.70;;;24.10;99.90;;;;;;5034688;28;20052;-82
2022/08/08 11:07:31;;;;;;;6.18;1.83;;;23.90;99.90;;;;;;5034773;28;20048;-81
2022/08/08 11:10:24;;;;;;;4.85;1.70;;;23.80;99.90;;;;;;5015816;28;20049;-81
2022/08/08 11:12:52;;;;;;;8.63;2.00;;;23.80;99.50;;;;;;5030862;28;20065;-80
2022/08/08 11:15:19;;;;;;;5.80;2.10;;;24.00;99.90;;;;;;5016893;28;20064;-81
2022/08/08 11:17:46;;;;;;;8.55;2.00;;;23.80;99.90;;;;;;5015654;28;20052;-81
2022/08/08 11:20:16;;;;;;;5.82;1.75;;;23.60;99.90;;;;;;5034423;28;20524;-81
2022/08/08 11:22:42;;;;;;;5.18;1.90;;;23.40;99.90;;;;;;5017091;28;20041;-81
2022/08/08 11:25:11;;;;;;;5.53;1.90;;;23.60;99.90;;;;;;5016150;28;20503;-81
2022/08/08 11:27:38;;;;;;;12.30;1.83;;;23.60;99.90;;;;;;5034098;28;20045;-81
2022/08/08 11:30:07;;;;;;;6.47;1.80;;;23.50;99.90;;;;;;5032761;28;20496;-81
2022/08/08 11:32:37;;;;;;;6.40;1.80;;;23.40;99.90;;;;;;4996387;28;20073;-81
2022/08/08 11:35:08;;;;;;;6.90;1.90;;;23.30;99.90;;;;;;4996643;28;20503;-83
2022/08/08 11:37:36;;;;;;;8.00;2.20;;;23.20;99.90;;;;;;4996537;28;20054;-84
2022/08/08 11:40:04;;;;;;;7.32;2.00;;;23.20;99.90;;;;;;5029703;28;20037;-84
2022/08/08 11:42:30;;;;;;;6.72;2.00;;;23.10;99.90;;;;;;4996577;28;20042;-84
2022/08/08 11:44:57;;;;;;;5.47;1.80;;;23.10;99.90;;;;;;4996692;28;20041;-84
2022/08/08 11:47:24;;;;;;;8.27;2.58;;;23.10;99.90;;;;;;5029874;28;20405;-83
2022/08/08 11:49:57;;;;;;;5.97;1.90;;;22.90;99.90;;;;;;4996612;28;20038;-84
2022/08/08 11:52:24;;;;;;;6.53;2.00;;;23.00;99.90;;;;;;5013886;28;20104;-84
2022/08/08 11:54:50;;;;;;;5.72;1.85;;;22.90;99.90;;;;;;4996244;28;20528;-84
2022/08/08 11:57:16;;;;;;;5.65;1.90;;;23.00;99.90;;;;;;4996381;28;20383;-85
2022/08/08 11:59:53;;;;;;;6.80;2.17;;;23.00;99.90;;;;;;4995978;28;20049;-81
2022/08/08 12:02:25;;;;;;;5.32;1.85;;;23.00;99.90;;;;;;5013999;28;20042;-81
2022/08/08 12:05:03;;;;;;;6.97;1.92;;;23.00;99.90;;;;;;5014040;28;20041;-86
2022/08/08 12:07:29;;;;;;;7.35;1.95;;;23.40;99.90;;;;;;5013501;28;20045;-87
2022/08/08 12:09:55;;;;;;;6.00;2.15;;;23.60;99.90;;;;;;4997669;28;20093;-88
2022/08/08 12:12:25;;;;;;;7.22;1.90;;;23.60;99.90;;;;;;4999148;28;20050;-88
2022/08/08 12:15:02;;;;;;;6.88;1.80;;;23.60;99.90;;;;;;5030141;28;20120;-87
2022/08/08 12:17:35;;;;;;;8.07;2.05;;;23.80;99.90;;;;;;4996489;28;20107;-87
2022/08/08 12:20:03;;;;;;;6.97;2.00;;;23.80;99.80;;;;;;4995663;28;20053;-87
2022/08/08 12:22:30;;;;;;;6.07;1.90;;;24.00;99.70;;;;;;5013805;28;20393;-87
2022/08/08 12:24:56;;;;;;;6.65;1.80;;;24.50;99.60;;;;;;5013424;28;20383;-87
2022/08/08 12:27:24;;;;;;;7.20;1.80;;;24.20;99.30;;;;;;5027991;28;20057;-87
2022/08/08 12:29:58;;;;;;;5.68;2.03;;;24.30;99.00;;;;;;4995996;28;20061;-87
2022/08/08 12:32:24;;;;;;;5.85;1.88;;;24.60;98.50;;;;;;5015718;28;20488;-85
2022/08/08 12:34:56;;;;;;;6.57;1.70;;;24.60;98.10;;;;;;5014453;28;20042;-85
2022/08/08 12:37:25;;;;;;;3.67;1.63;;;24.60;97.30;;;;;;5015680;28;20059;-84
2022/08/08 12:39:51;;;;;;;7.35;1.80;;;24.50;97.60;;;;;;5014796;28;20080;-85
2022/08/08 12:42:16;;;;;;;4.20;1.70;;;24.80;97.30;;;;;;5014539;28;20103;-86
2022/08/08 12:44:44;;;;;;;6.40;1.80;;;25.20;96.90;;;;;;5015505;28;20076;-86
2022/08/08 12:47:10;;;;;;;4.53;1.70;;;25.60;96.30;;;;;;5015383;28;20064;-87
2022/08/08 12:49:37;;;;;;;5.05;1.70;;;26.10;95.90;;;;;;5014875;28;20126;-91
2022/08/08 12:52:06;;;;;;;5.63;1.70;;;26.50;95.30;;;;;;5014962;28;20416;-89
2022/08/08 12:54:35;;;;;;;7.57;1.80;;;26.90;95.40;;;;;;5034696;28;20038;-88
2022/08/08 12:57:15;;;;;;;4.93;1.80;;;27.10;95.10;;;;;;5031512;28;20061;-88
2022/08/08 12:59:52;;;;;;;4.97;1.75;;;26.80;94.40;;;;;;5033649;28;20045;-87
2022/08/08 13:02:40;;;;;;;6.07;1.88;;;26.70;94.60;;;;;;5014610;28;20056;-81
2022/08/08 13:05:19;;;;;;;6.30;1.77;;;26.50;94.80;;;;;;5014729;28;20049;-80
2022/08/08 13:07:45;;;;;;;5.78;1.83;;;26.20;94.70;;;;;;5015488;28;20494;-84
2022/08/08 13:10:14;;;;;;;5.22;1.70;;;25.90;95.00;;;;;;5039213;28;20049;-85
2022/08/08 13:12:42;;;;;;;6.03;1.95;;;25.40;95.00;;;;;;5052525;28;20409;-87
2022/08/08 13:15:11;;;;;;;6.25;1.77;;;25.10;95.30;;;;;;5023406;28;20050;-85
2022/08/08 13:17:37;;;;;;;5.63;1.70;;;24.80;95.60;;;;;;5041214;28;20049;-83
2022/08/08 13:20:10;;;;;;;5.63;1.83;;;24.70;95.90;;;;;;5015672;28;20076;-84
2022/08/08 13:22:37;;;;;;;7.65;1.75;;;24.60;95.60;;;;;;5010108;28;20425;-85